Terminal Aerodrome Forecast
Issued by NWS

Home | Current Version | Previous Version | Text Only | Print | Product List | Glossary Off
Versions: 1 2 3 4 5 6 7 8 9 10 11 12 13

000
FTUS42 KMHX 262341
TAFISO
TAF
KISO 262341Z 2700/2724 07005KT 6SM BR VCSH SCT009 BKN015
     FM270500 00000KT 3SM BR BKN007
     FM271500 05008KT P6SM SCT015 BKN040
     FM271700 05009KT P6SM VCTS BKN050CB
      AMD LTD TO CLD VIS AND WIND=

USA.gov is the U.S. government's official web portal to all federal, state and local government web resources and services.